Time;durP1;ratioP1;P1;durP2;ratioP2;P2;SDS_P1;SDS_P2;PMS_P1;PMS_P2;Temp;Humidity;BMP_temperature;BMP_pressure;BME280_temperature;BME280_humidity;BME280_pressure;Samples;Min_cycle;Max_cycle;Signal;HPM_P1;HPM_P2
2023/04/17 00:00:31;;;;;;;0.20;0.20;;;;;;;20.92;40.69;102024.06;5077659;28;20048;-45
2023/04/17 00:02:57;;;;;;;0.20;0.20;;;;;;;20.93;40.75;102018.25;5077512;28;20055;-45
2023/04/17 00:05:25;;;;;;;0.20;0.20;;;;;;;20.92;40.64;102019.34;5094165;28;20043;-46
2023/04/17 00:07:50;;;;;;;0.20;0.20;;;;;;;20.93;40.60;102020.19;5097507;28;20047;-46
2023/04/17 00:10:16;;;;;;;0.20;0.20;;;;;;;20.92;40.61;102026.81;5097695;28;20388;-45
2023/04/17 00:12:42;;;;;;;0.20;0.20;;;;;;;20.91;40.64;102019.63;5097845;28;20047;-46
2023/04/17 00:15:08;;;;;;;0.20;0.20;;;;;;;20.92;40.57;102016.59;5097221;28;20267;-45
2023/04/17 00:17:33;;;;;;;0.20;0.20;;;;;;;20.92;40.74;102018.53;5097178;28;20062;-46
2023/04/17 00:19:59;;;;;;;0.20;0.20;;;;;;;20.92;40.62;102011.03;5097115;28;20479;-45
2023/04/17 00:22:25;;;;;;;0.20;0.20;;;;;;;20.91;40.78;102016.84;5104812;28;20378;-46
2023/04/17 00:24:51;;;;;;;0.20;0.20;;;;;;;20.92;40.79;102011.03;5107352;28;20544;-46
2023/04/17 00:27:16;;;;;;;0.20;0.20;;;;;;;20.92;40.79;102011.03;5089101;28;20051;-45
2023/04/17 00:29:42;;;;;;;0.20;0.20;;;;;;;20.92;40.52;102013.81;5076500;28;20078;-45
2023/04/17 00:32:08;;;;;;;0.20;0.20;;;;;;;20.93;40.64;102014.66;5076681;28;20454;-45
2023/04/17 00:34:33;;;;;;;0.20;0.20;;;;;;;20.93;40.65;102007.16;5091640;28;20044;-45
2023/04/17 00:36:59;;;;;;;0.20;0.20;;;;;;;20.92;40.65;102008.28;5097045;28;20503;-45
2023/04/17 00:39:25;;;;;;;0.30;0.30;;;;;;;20.92;40.63;102010.22;5096869;28;20049;-45
2023/04/17 00:41:50;;;;;;;0.20;0.20;;;;;;;20.93;40.51;102001.63;5099760;28;20088;-45
2023/04/17 00:44:16;;;;;;;0.20;0.20;;;;;;;20.93;40.67;101998.03;5107885;28;20044;-45
2023/04/17 00:46:42;;;;;;;0.20;0.20;;;;;;;20.94;40.62;102005.22;5075909;28;20058;-46
2023/04/17 00:49:09;;;;;;;0.20;0.20;;;;;;;20.93;40.70;101995.25;5057903;28;20134;-48
2023/04/17 00:51:35;;;;;;;0.30;0.30;;;;;;;20.93;40.51;102003.56;5075959;28;20097;-45
2023/04/17 00:54:00;;;;;;;0.20;0.20;;;;;;;20.92;40.52;101994.44;5076360;28;20048;-46
2023/04/17 00:56:27;;;;;;;0.20;0.20;;;;;;;20.93;40.64;101995.25;5075993;28;20233;-45
2023/04/17 00:58:53;;;;;;;0.20;0.20;;;;;;;20.93;40.71;102004.41;5075677;28;20091;-45
2023/04/17 01:01:21;;;;;;;0.20;0.20;;;;;;;20.92;40.55;102005.50;5075712;28;20074;-45
2023/04/17 01:03:48;;;;;;;0.20;0.20;;;;;;;20.94;40.70;101997.78;5087803;28;20051;-47
2023/04/17 01:06:14;;;;;;;0.20;0.20;;;;;;;20.93;40.61;101996.09;5096376;28;20043;-45
2023/04/17 01:08:41;;;;;;;0.20;0.20;;;;;;;20.94;40.54;101994.16;5096252;28;20258;-46
2023/04/17 01:11:08;;;;;;;0.20;0.20;;;;;;;20.94;40.51;101996.91;5095835;28;20290;-45
2023/04/17 01:13:33;;;;;;;0.20;0.20;;;;;;;20.94;40.72;101994.16;5095953;28;20047;-45
2023/04/17 01:15:59;;;;;;;0.20;0.20;;;;;;;20.94;40.50;101997.78;5096048;28;20051;-45
2023/04/17 01:18:25;;;;;;;0.20;0.20;;;;;;;20.93;40.55;101989.72;5095725;28;20070;-45
2023/04/17 01:20:51;;;;;;;0.25;0.22;;;;;;;20.94;40.75;102003.31;5077590;28;20047;-44
2023/04/17 01:23:16;;;;;;;0.20;0.20;;;;;;;20.93;40.67;101998.84;5095741;28;20048;-45
2023/04/17 01:25:42;;;;;;;0.20;0.20;;;;;;;20.93;40.61;101995.25;5111431;28;20067;-46
2023/04/17 01:28:08;;;;;;;0.20;0.20;;;;;;;20.93;40.71;101993.31;5108787;28;20043;-45
2023/04/17 01:30:34;;;;;;;0.20;0.20;;;;;;;20.93;40.75;101996.09;5116387;28;20043;-45
2023/04/17 01:32:59;;;;;;;0.20;0.20;;;;;;;20.93;40.73;101992.50;5105168;28;20055;-47
2023/04/17 01:35:25;;;;;;;0.20;0.20;;;;;;;20.94;40.50;101994.16;5081708;28;20472;-45
2023/04/17 01:37:51;;;;;;;0.20;0.20;;;;;;;20.94;40.68;101996.91;5075645;28;20457;-45
2023/04/17 01:40:17;;;;;;;0.20;0.20;;;;;;;20.93;40.58;102009.94;5075016;28;20048;-46
2023/04/17 01:42:42;;;;;;;0.20;0.20;;;;;;;20.95;40.68;102006.91;5075375;28;20529;-45
2023/04/17 01:45:08;;;;;;;0.22;0.22;;;;;;;20.93;40.52;102007.16;5105019;28;20043;-45
2023/04/17 01:47:34;;;;;;;0.20;0.20;;;;;;;20.94;40.52;101996.91;5082939;28;20056;-48
2023/04/17 01:50:00;;;;;;;0.20;0.20;;;;;;;20.94;40.54;101996.91;5074868;28;20419;-45
2023/04/17 01:52:26;;;;;;;0.20;0.20;;;;;;;20.94;40.54;102002.47;5074833;28;20487;-45
2023/04/17 01:54:51;;;;;;;0.20;0.20;;;;;;;20.94;40.66;101997.78;5074986;28;20079;-47
2023/04/17 01:57:17;;;;;;;0.20;0.20;;;;;;;20.94;40.63;102002.47;5075265;28;20044;-47
2023/04/17 01:59:43;;;;;;;0.20;0.20;;;;;;;20.94;40.69;102006.09;5074946;28;20523;-45
2023/04/17 02:02:09;;;;;;;0.20;0.20;;;;;;;20.93;40.67;102007.16;5075129;28;20044;-46
2023/04/17 02:04:35;;;;;;;0.20;0.20;;;;;;;20.93;40.47;101995.25;5093326;28;20047;-45
2023/04/17 02:07:00;;;;;;;0.20;0.20;;;;;;;20.94;40.54;101996.91;5096123;28;20053;-46
2023/04/17 02:09:26;;;;;;;0.20;0.20;;;;;;;20.94;40.49;102005.22;5095617;28;20179;-45
2023/04/17 02:11:52;;;;;;;0.20;0.20;;;;;;;20.94;40.67;102008.00;5095600;28;20348;-46
2023/04/17 02:14:18;;;;;;;0.28;0.28;;;;;;;20.94;40.69;102006.09;5095171;28;20043;-46
2023/04/17 02:16:44;;;;;;;0.20;0.20;;;;;;;20.95;40.49;102006.91;5095537;28;20078;-45
2023/04/17 02:19:12;;;;;;;0.20;0.20;;;;;;;20.94;40.81;102005.22;5095336;28;20462;-46
2023/04/17 02:21:38;;;;;;;0.20;0.20;;;;;;;20.94;40.63;102010.75;5095618;28;20044;-45
2023/04/17 02:24:03;;;;;;;0.20;0.20;;;;;;;20.93;40.71;102006.34;5095226;28;20088;-45
2023/04/17 02:26:29;;;;;;;0.20;0.20;;;;;;;20.94;40.69;102008.00;5104829;28;20055;-45
2023/04/17 02:28:55;;;;;;;0.10;0.10;;;;;;;20.94;40.63;102008.84;5115659;28;20082;-46
2023/04/17 02:31:20;;;;;;;0.20;0.20;;;;;;;20.93;40.62;102007.16;5115603;28;20051;-47
2023/04/17 02:33:46;;;;;;;0.20;0.20;;;;;;;20.93;40.68;102007.16;5081374;28;20044;-45
2023/04/17 02:36:12;;;;;;;0.20;0.20;;;;;;;20.94;40.63;102005.22;5094901;28;20039;-47
2023/04/17 02:38:38;;;;;;;0.20;0.20;;;;;;;20.94;40.52;102008.00;5095576;28;20047;-47
2023/04/17 02:41:04;;;;;;;0.20;0.20;;;;;;;20.94;40.44;102008.00;5095058;28;20172;-47
2023/04/17 02:43:30;;;;;;;0.20;0.20;;;;;;;20.92;40.49;102002.75;5094970;28;20510;-45
2023/04/17 02:45:55;;;;;;;0.20;0.20;;;;;;;20.94;40.60;102010.75;5102075;28;20046;-45
2023/04/17 02:48:21;;;;;;;0.20;0.20;;;;;;;20.94;40.56;102008.00;5115340;28;20039;-45
2023/04/17 02:50:47;;;;;;;0.20;0.20;;;;;;;20.95;40.62;102015.22;5115739;28;20545;-46
2023/04/17 02:53:13;;;;;;;0.20;0.20;;;;;;;20.93;40.69;102007.16;5115385;28;20103;-45
2023/04/17 02:55:38;;;;;;;0.20;0.20;;;;;;;20.94;40.49;102011.63;5083702;28;20063;-46
2023/04/17 02:58:04;;;;;;;0.20;0.20;;;;;;;20.95;40.61;102015.22;5074431;28;20472;-45
2023/04/17 03:00:30;;;;;;;0.20;0.20;;;;;;;20.95;40.59;102012.47;5074770;28;20169;-45
2023/04/17 03:02:55;;;;;;;0.20;0.20;;;;;;;20.95;40.42;102018.00;5074218;28;20040;-45
2023/04/17 03:05:22;;;;;;;0.20;0.20;;;;;;;20.94;40.58;102014.41;5087714;28;20571;-46
2023/04/17 03:07:49;;;;;;;0.10;0.10;;;;;;;20.94;40.66;102008.84;5094756;28;20451;-46
2023/04/17 03:10:15;;;;;;;0.20;0.20;;;;;;;20.94;40.70;102011.63;5095247;28;20048;-47
2023/04/17 03:12:40;;;;;;;0.20;0.20;;;;;;;20.95;40.64;102016.06;5094531;28;20056;-46
2023/04/17 03:15:07;;;;;;;0.20;0.20;;;;;;;20.94;40.59;102017.16;5094284;28;20044;-45
2023/04/17 03:17:34;;;;;;;0.20;0.20;;;;;;;20.94;40.51;102014.41;5094275;28;20043;-46
2023/04/17 03:20:00;;;;;;;0.20;0.20;;;;;;;20.94;40.53;102017.16;5094618;28;20105;-44
2023/04/17 03:22:25;;;;;;;0.20;0.20;;;;;;;20.95;40.70;102018.81;5094509;28;20047;-45
2023/04/17 03:24:51;;;;;;;0.20;0.20;;;;;;;20.95;40.75;102020.75;5094313;28;20055;-46
2023/04/17 03:27:23;;;;;;;0.20;0.20;;;;;;;20.94;40.66;102014.41;5078775;28;20055;-45
2023/04/17 03:29:50;;;;;;;0.20;0.20;;;;;;;20.95;40.64;102018.00;5115055;27;20095;-45
2023/04/17 03:32:17;;;;;;;0.10;0.10;;;;;;;20.95;40.69;102018.81;5073504;28;20073;-45
2023/04/17 03:34:42;;;;;;;0.20;0.20;;;;;;;20.95;40.59;102015.22;5058562;28;20096;-45
2023/04/17 03:37:08;;;;;;;0.20;0.20;;;;;;;20.96;40.74;102022.44;5089241;28;20044;-45
2023/04/17 03:39:34;;;;;;;0.20;0.20;;;;;;;20.96;40.45;102016.88;5097506;28;20488;-45
2023/04/17 03:41:59;;;;;;;0.20;0.20;;;;;;;20.97;40.59;102024.09;5097493;28;20051;-45
2023/04/17 03:44:25;;;;;;;0.20;0.20;;;;;;;20.96;40.70;102014.94;5097436;28;20473;-47
2023/04/17 03:46:51;;;;;;;0.20;0.20;;;;;;;20.96;40.75;102019.66;5079194;28;20055;-47
2023/04/17 03:49:16;;;;;;;0.20;0.20;;;;;;;20.95;40.63;102018.00;5114209;28;20051;-47
2023/04/17 03:51:42;;;;;;;0.20;0.20;;;;;;;20.95;40.51;102018.81;5118384;28;20503;-45
2023/04/17 03:54:08;;;;;;;0.20;0.20;;;;;;;20.95;40.57;102024.38;5111669;28;20048;-45
2023/04/17 03:56:34;;;;;;;0.20;0.20;;;;;;;20.95;40.50;102024.38;5058565;28;20067;-44
2023/04/17 03:58:59;;;;;;;0.20;0.20;;;;;;;20.95;40.55;102020.75;5077183;28;20072;-45
2023/04/17 04:01:27;;;;;;;0.20;0.20;;;;;;;20.95;40.58;102024.38;5077569;28;20492;-45
2023/04/17 04:03:53;;;;;;;0.20;0.20;;;;;;;20.96;40.45;102031.56;5096769;28;20044;-45
2023/04/17 04:06:21;;;;;;;0.20;0.20;;;;;;;20.96;40.93;102026.03;5077250;28;20048;-45
2023/04/17 04:08:48;;;;;;;0.20;0.20;;;;;;;20.96;40.46;102031.56;5059040;28;20298;-46
2023/04/17 04:11:14;;;;;;;0.20;0.20;;;;;;;20.95;40.82;102029.91;5077243;28;20044;-46
2023/04/17 04:13:40;;;;;;;0.20;0.20;;;;;;;20.95;40.61;102015.22;5077443;28;20051;-45
2023/04/17 04:16:06;;;;;;;0.20;0.20;;;;;;;20.97;40.53;102024.09;5058419;28;20072;-47
2023/04/17 04:18:31;;;;;;;0.20;0.20;;;;;;;20.96;40.76;102027.97;5076770;28;20091;-45
2023/04/17 04:20:57;;;;;;;0.20;0.20;;;;;;;20.94;40.68;102033.78;5076867;28;20047;-45
2023/04/17 04:23:23;;;;;;;0.20;0.20;;;;;;;20.94;40.55;102031.00;5077007;28;20052;-46
2023/04/17 04:25:50;;;;;;;0.20;0.20;;;;;;;20.95;40.63;102032.69;5076605;28;20524;-45
2023/04/17 04:28:16;;;;;;;0.20;0.20;;;;;;;20.96;40.77;102028.78;5076626;28;20048;-45
2023/04/17 04:30:49;;;;;;;0.20;0.20;;;;;;;20.96;40.57;102030.75;5109601;28;20067;-45
2023/04/17 04:33:19;;;;;;;0.20;0.20;;;;;;;20.97;40.48;102038.75;5088302;28;20039;-46
2023/04/17 04:35:46;;;;;;;0.20;0.20;;;;;;;20.98;40.74;102037.69;5084104;28;20048;-47
2023/04/17 04:38:13;;;;;;;0.30;0.30;;;;;;;20.97;40.53;102040.69;5076329;28;20523;-46
2023/04/17 04:40:38;;;;;;;0.20;0.20;;;;;;;20.97;40.48;102044.31;5058013;28;20048;-48
2023/04/17 04:43:05;;;;;;;0.20;0.20;;;;;;;20.95;40.46;102040.97;5058379;28;20052;-45
2023/04/17 04:45:31;;;;;;;0.20;0.20;;;;;;;20.96;40.76;102044.59;5076388;28;20448;-47
2023/04/17 04:47:57;;;;;;;0.20;0.20;;;;;;;20.97;40.75;102052.63;5075949;28;20051;-46
2023/04/17 04:50:22;;;;;;;0.20;0.20;;;;;;;20.97;40.66;102052.63;5105020;28;20088;-48
2023/04/17 04:52:48;;;;;;;0.20;0.20;;;;;;;20.98;40.69;102059.84;5117026;28;20039;-47
2023/04/17 04:55:14;;;;;;;0.28;0.28;;;;;;;20.96;40.64;102059.25;5092264;28;20047;-47
2023/04/17 04:57:40;;;;;;;0.15;0.15;;;;;;;20.97;40.93;102052.63;5075990;28;20051;-46
2023/04/17 05:00:07;;;;;;;0.20;0.20;;;;;;;20.97;40.85;102060.91;5078092;28;20047;-48
2023/04/17 05:02:33;;;;;;;0.20;0.20;;;;;;;20.99;40.67;102060.69;5097818;28;20083;-48
2023/04/17 05:04:59;;;;;;;0.20;0.20;;;;;;;20.98;40.72;102059.84;5090874;28;20135;-47
2023/04/17 05:07:26;;;;;;;0.20;0.20;;;;;;;20.98;40.94;102059.84;5078000;28;20044;-46
2023/04/17 05:09:51;;;;;;;0.20;0.20;;;;;;;20.99;40.96;102057.91;5082991;28;20288;-46
2023/04/17 05:12:17;;;;;;;0.20;0.20;;;;;;;20.97;40.69;102060.09;5056103;28;21439;-45
2023/04/17 05:14:42;;;;;;;0.20;0.20;;;;;;;20.96;40.78;102067.56;5080236;28;20446;-45
2023/04/17 05:17:08;;;;;;;0.20;0.20;;;;;;;20.97;40.94;102072.00;5085979;28;20042;-45
2023/04/17 05:19:34;;;;;;;0.20;0.20;;;;;;;20.98;40.67;102072.81;5081789;28;20052;-45
2023/04/17 05:21:59;;;;;;;0.20;0.20;;;;;;;20.98;40.64;102070.06;5079492;28;20515;-45
2023/04/17 05:24:25;;;;;;;0.20;0.20;;;;;;;20.97;40.69;102072.00;5079978;28;20213;-45
2023/04/17 05:26:52;;;;;;;0.20;0.20;;;;;;;20.97;40.52;102069.22;5081477;28;20096;-45
2023/04/17 05:29:17;;;;;;;0.20;0.20;;;;;;;20.97;40.74;102085.00;5084930;28;20044;-45
2023/04/17 05:31:43;;;;;;;0.20;0.20;;;;;;;20.97;41.10;102073.94;5066933;28;20045;-45
2023/04/17 05:34:09;;;;;;;0.20;0.20;;;;;;;20.95;41.05;102079.75;5082123;28;20048;-48
2023/04/17 05:36:34;;;;;;;0.13;0.13;;;;;;;20.97;41.02;102073.94;5092047;28;20058;-49
2023/04/17 05:39:00;;;;;;;0.20;0.20;;;;;;;20.96;40.91;102078.66;5076563;28;20050;-44
2023/04/17 05:41:29;;;;;;;0.20;0.20;;;;;;;20.98;40.95;102083.91;5078454;28;20051;-52
2023/04/17 05:43:55;;;;;;;0.20;0.20;;;;;;;20.98;40.93;102086.69;5080557;28;20074;-45
2023/04/17 05:46:20;;;;;;;0.20;0.20;;;;;;;20.98;41.17;102084.78;5081346;28;20051;-45
2023/04/17 05:48:46;;;;;;;0.20;0.20;;;;;;;20.97;41.00;102083.06;5081364;28;20047;-47
2023/04/17 05:51:12;;;;;;;0.20;0.20;;;;;;;20.99;41.18;102080.91;5094283;28;20043;-45
2023/04/17 05:53:38;;;;;;;0.20;0.20;;;;;;;20.98;41.42;102075.59;5085193;28;20047;-45
2023/04/17 05:56:04;;;;;;;0.20;0.20;;;;;;;20.99;41.41;102080.06;5081819;28;20096;-48
2023/04/17 05:58:30;;;;;;;0.20;0.20;;;;;;;20.96;41.47;102084.19;5054997;28;20411;-45
2023/04/17 06:00:56;;;;;;;0.20;0.20;;;;;;;20.93;41.36;102081.94;5071729;28;20573;-46
2023/04/17 06:03:22;;;;;;;0.20;0.20;;;;;;;20.94;41.37;102083.63;5076001;28;20048;-45
2023/04/17 06:05:48;;;;;;;0.20;0.20;;;;;;;20.92;41.42;102083.03;5070829;28;20462;-44
2023/04/17 06:08:14;;;;;;;0.10;0.10;;;;;;;20.92;41.23;102085.81;5073651;28;20044;-47
2023/04/17 06:10:39;;;;;;;0.38;0.38;;;;;;;20.93;41.48;102087.47;5072469;28;20044;-46
2023/04/17 06:13:05;;;;;;;0.20;0.20;;;;;;;20.91;41.29;102081.38;5081100;28;20054;-46
2023/04/17 06:15:31;;;;;;;0.20;0.20;;;;;;;20.93;41.51;102083.88;5091502;28;20039;-45
2023/04/17 06:17:56;;;;;;;0.20;0.20;;;;;;;20.91;41.64;102091.63;5082711;28;20039;-46
2023/04/17 06:20:22;;;;;;;0.20;0.20;;;;;;;20.90;41.41;102093.56;5081374;28;20036;-45
2023/04/17 06:22:48;;;;;;;0.20;0.20;;;;;;;20.90;41.66;102088.03;5076834;28;20055;-46
2023/04/17 06:25:14;;;;;;;0.20;0.20;;;;;;;20.91;41.23;102086.09;5084539;28;20071;-46
2023/04/17 06:27:39;;;;;;;0.20;0.20;;;;;;;20.89;41.29;102085.50;5079972;28;20044;-44
2023/04/17 06:30:06;;;;;;;0.20;0.20;;;;;;;20.90;41.56;102095.50;5077049;28;20044;-44
2023/04/17 06:32:31;;;;;;;0.20;0.20;;;;;;;20.28;43.46;102094.03;5081595;28;20712;-44
2023/04/17 06:34:57;;;;;;;0.20;0.20;;;;;;;20.49;43.09;102097.88;5085646;28;20050;-44
2023/04/17 06:37:25;;;;;;;0.30;0.30;;;;;;;20.70;42.03;102107.22;5083070;28;20111;-45
2023/04/17 06:39:50;;;;;;;0.20;0.20;;;;;;;20.77;41.91;102096.78;5079772;28;20046;-46
2023/04/17 06:42:16;;;;;;;0.20;0.20;;;;;;;20.52;42.21;102108.44;5086176;28;20043;-45
2023/04/17 06:44:42;;;;;;;0.20;0.20;;;;;;;20.72;42.20;102105.00;5079190;28;20052;-46
2023/04/17 06:47:08;;;;;;;0.20;0.20;;;;;;;20.76;41.73;102108.91;5075587;28;20184;-44
2023/04/17 06:49:33;;;;;;;0.20;0.20;;;;;;;20.79;41.97;102109.22;5078591;28;20472;-45
2023/04/17 06:51:59;;;;;;;0.20;0.20;;;;;;;20.83;41.87;102112.31;5078289;28;20128;-45
2023/04/17 06:54:25;;;;;;;0.20;0.20;;;;;;;20.84;42.06;102113.16;5075973;28;20048;-46
2023/04/17 06:56:51;;;;;;;0.20;0.20;;;;;;;20.83;42.07;102115.09;5065253;28;20055;-47
2023/04/17 06:59:17;;;;;;;0.20;0.20;;;;;;;20.85;42.14;102131.44;5041928;28;20053;-46
2023/04/17 07:01:43;;;;;;;0.20;0.20;;;;;;;20.84;41.93;102127.00;5064904;28;20044;-44
2023/04/17 07:04:09;;;;;;;0.20;0.20;;;;;;;20.82;41.94;102127.25;5060733;28;20736;-46
2023/04/17 07:06:35;;;;;;;0.20;0.20;;;;;;;20.82;41.89;102120.91;5061240;28;20117;-46
2023/04/17 07:09:01;;;;;;;0.20;0.20;;;;;;;20.79;41.81;102131.38;5055987;28;20048;-45
2023/04/17 07:11:27;;;;;;;0.20;0.20;;;;;;;20.80;41.81;102137.75;5043377;28;20044;-45
2023/04/17 07:13:53;;;;;;;0.20;0.20;;;;;;;20.83;41.66;102133.63;5066245;28;20047;-45
2023/04/17 07:16:21;;;;;;;0.20;0.20;;;;;;;20.85;41.61;102139.72;5052136;28;20043;-44
2023/04/17 07:18:50;;;;;;;0.20;0.20;;;;;;;20.85;41.52;102132.25;5064938;28;20051;-44
2023/04/17 07:21:16;;;;;;;0.20;0.20;;;;;;;20.84;41.36;102135.31;5055321;28;20703;-44
2023/04/17 07:23:42;;;;;;;0.20;0.20;;;;;;;20.86;41.52;102135.88;5057789;28;20491;-45
2023/04/17 07:26:07;;;;;;;0.20;0.20;;;;;;;20.87;41.44;102143.91;5075627;28;20051;-48
2023/04/17 07:28:33;;;;;;;0.30;0.30;;;;;;;20.87;41.74;102143.91;5071092;28;20050;-45
2023/04/17 07:30:59;;;;;;;0.30;0.30;;;;;;;20.87;41.60;102149.47;5078969;28;20053;-44
2023/04/17 07:33:25;;;;;;;0.20;0.20;;;;;;;20.87;41.42;102143.09;5077451;28;20048;-46
2023/04/17 07:35:52;;;;;;;0.10;0.10;;;;;;;20.87;41.51;102149.47;5062556;28;20050;-45
2023/04/17 07:38:17;;;;;;;0.20;0.20;;;;;;;20.87;41.38;102152.22;5067740;28;20181;-44
2023/04/17 07:40:43;;;;;;;0.20;0.20;;;;;;;20.89;41.49;102151.97;5082121;28;21956;-45
2023/04/17 07:43:09;;;;;;;0.20;0.20;;;;;;;20.90;41.57;102150.88;5076741;28;20175;-44
2023/04/17 07:45:35;;;;;;;0.20;0.20;;;;;;;20.87;41.51;102146.69;5080824;28;20040;-45
2023/04/17 07:48:03;;;;;;;0.20;0.20;;;;;;;20.87;41.98;102152.22;5077310;28;20070;-46
2023/04/17 07:50:29;;;;;;;0.20;0.20;;;;;;;20.88;41.50;102151.13;5054643;28;20104;-45
2023/04/17 07:52:55;;;;;;;0.20;0.20;;;;;;;20.85;41.98;102151.63;5076247;28;20710;-58
2023/04/17 07:55:20;;;;;;;0.20;0.20;;;;;;;20.89;41.98;102149.19;5065856;28;20051;-46
2023/04/17 07:57:48;;;;;;;0.35;0.35;;;;;;;20.64;42.24;102149.75;5067801;28;20047;-45
2023/04/17 08:00:15;;;;;;;0.28;0.28;;;;;;;20.78;42.56;102160.19;5080479;28;20112;-46
2023/04/17 08:02:41;;;;;;;0.20;0.20;;;;;;;20.83;42.02;102164.09;5077382;28;20035;-46
2023/04/17 08:05:08;;;;;;;0.20;0.20;;;;;;;20.79;42.04;102163.78;5071339;28;20201;-46
2023/04/17 08:07:34;;;;;;;0.20;0.20;;;;;;;20.77;41.86;102152.16;5069233;28;20070;-45
2023/04/17 08:10:00;;;;;;;0.20;0.20;;;;;;;20.79;42.13;102161.00;5048868;28;20039;-47
2023/04/17 08:12:26;;;;;;;0.20;0.20;;;;;;;20.80;42.29;102163.50;5065530;28;20238;-44
2023/04/17 08:14:51;;;;;;;0.30;0.30;;;;;;;20.82;42.25;102165.19;5065123;28;20078;-47
2023/04/17 08:17:22;;;;;;;0.20;0.20;;;;;;;20.80;42.23;102168.22;5067316;28;20052;-45
2023/04/17 08:19:49;;;;;;;0.20;0.20;;;;;;;20.82;42.41;102173.50;5072182;28;20062;-45
2023/04/17 08:22:15;;;;;;;0.10;0.10;;;;;;;20.80;42.26;102173.75;5062510;28;20483;-47
2023/04/17 08:24:41;;;;;;;0.20;0.20;;;;;;;20.83;42.20;102172.41;5073410;28;20080;-45
2023/04/17 08:27:07;;;;;;;0.20;0.20;;;;;;;20.81;42.08;102169.88;5071387;28;20051;-45
2023/04/17 08:29:32;;;;;;;0.30;0.30;;;;;;;20.79;42.51;102172.09;5077873;28;21685;-47
2023/04/17 08:31:58;;;;;;;0.20;0.20;;;;;;;20.10;43.52;102175.41;5072163;28;20055;-44
2023/04/17 08:34:40;;;;;;;0.20;0.20;;;;;;;20.57;43.34;102177.66;5063564;28;20108;-47
2023/04/17 08:37:05;;;;;;;0.20;0.20;;;;;;;20.72;43.03;102176.97;5066166;28;20469;-45
2023/04/17 08:39:31;;;;;;;0.30;0.28;;;;;;;20.77;43.12;102179.81;5063336;28;20102;-46
2023/04/17 08:42:01;;;;;;;0.20;0.20;;;;;;;20.82;43.11;102176.28;5070190;28;20044;-47
2023/04/17 08:44:27;;;;;;;0.20;0.20;;;;;;;20.83;43.08;102178.78;5069340;28;20473;-46
2023/04/17 08:46:57;;;;;;;0.20;0.20;;;;;;;20.83;42.04;102181.53;5056551;28;20425;-46
2023/04/17 08:49:27;;;;;;;0.38;0.38;;;;;;;20.85;42.45;102179.31;5063939;28;20109;-45
2023/04/17 08:51:53;;;;;;;0.20;0.20;;;;;;;20.87;42.74;102190.16;5073696;28;20392;-49
2023/04/17 08:54:20;;;;;;;0.20;0.20;;;;;;;20.86;42.93;102180.19;5080802;28;20471;-46
2023/04/17 08:56:47;;;;;;;0.20;0.20;;;;;;;20.86;42.71;102186.56;5048309;28;20102;-46
2023/04/17 08:59:13;;;;;;;0.20;0.20;;;;;;;20.87;42.82;102187.38;5073362;28;20160;-46
2023/04/17 09:01:59;;;;;;;0.20;0.20;;;;;;;20.87;42.65;102179.09;5073217;28;20166;-47
2023/04/17 09:04:42;;;;;;;0.20;0.20;;;;;;;20.89;42.67;102185.19;5054753;28;20039;-47
2023/04/17 09:07:10;;;;;;;0.20;0.20;;;;;;;20.89;42.65;102183.25;5058700;28;20480;-46
2023/04/17 09:09:52;;;;;;;0.20;0.20;;;;;;;20.89;42.75;102191.56;5061426;28;20563;-44
2023/04/17 09:12:20;;;;;;;0.20;0.20;;;;;;;20.89;42.57;102188.78;5070950;28;20409;-45
2023/04/17 09:14:45;;;;;;;0.30;0.30;;;;;;;20.88;42.65;102192.66;5074953;28;20036;-46
2023/04/17 09:17:13;;;;;;;0.30;0.30;;;;;;;20.87;42.66;102192.94;5074731;28;20051;-47
2023/04/17 09:20:05;;;;;;;0.20;0.20;;;;;;;20.86;42.48;102200.41;5064084;28;20462;-49
2023/04/17 09:22:31;;;;;;;0.20;0.20;;;;;;;20.85;42.73;102195.09;5062795;28;20043;-47
2023/04/17 09:24:56;;;;;;;0.20;0.20;;;;;;;20.86;42.43;102194.03;5079863;28;20043;-45
2023/04/17 09:27:25;;;;;;;0.20;0.20;;;;;;;20.87;42.46;102190.16;5062040;28;20052;-47
2023/04/17 09:29:56;;;;;;;0.20;0.20;;;;;;;20.87;42.56;102191.00;5073399;28;20456;-46
2023/04/17 09:32:22;;;;;;;0.20;0.20;;;;;;;20.87;42.71;102185.47;5070945;28;20076;-47
2023/04/17 09:34:48;;;;;;;0.30;0.30;;;;;;;20.89;42.50;102187.94;5073323;28;20492;-47
2023/04/17 09:37:13;;;;;;;0.20;0.20;;;;;;;20.89;42.56;102186.00;5062935;28;20052;-51
2023/04/17 09:39:53;;;;;;;0.43;0.30;;;;;;;20.89;42.53;102191.56;5073588;28;20456;-46
2023/04/17 09:42:19;;;;;;;0.20;0.20;;;;;;;20.91;42.45;102188.53;5067650;28;20455;-49
2023/04/17 09:44:45;;;;;;;0.20;0.20;;;;;;;20.92;42.62;102192.97;5047341;28;20048;-45
2023/04/17 09:47:11;;;;;;;0.38;0.38;;;;;;;20.91;42.39;102196.84;5070492;28;20606;-46
2023/04/17 09:49:41;;;;;;;0.20;0.20;;;;;;;20.91;42.23;102191.31;5070299;28;20039;-46
2023/04/17 09:52:07;;;;;;;0.30;0.30;;;;;;;20.88;42.63;102192.66;5077415;28;20121;-47
2023/04/17 09:54:36;;;;;;;0.10;0.10;;;;;;;20.87;42.52;102192.94;5076305;28;20054;-47
2023/04/17 09:57:04;;;;;;;0.20;0.20;;;;;;;20.87;42.49;102190.16;5082029;28;20144;-47
2023/04/17 09:59:30;;;;;;;0.20;0.20;;;;;;;20.86;42.49;102192.09;5094198;28;20378;-45
2023/04/17 10:01:56;;;;;;;0.30;0.30;;;;;;;20.88;42.49;102187.13;5075994;28;20052;-47
2023/04/17 10:04:22;;;;;;;0.30;0.30;;;;;;;20.87;42.57;102185.47;5078551;28;20055;-46
2023/04/17 10:06:48;;;;;;;0.20;0.20;;;;;;;20.86;42.52;102182.97;5079482;28;20043;-46
2023/04/17 10:09:14;;;;;;;0.20;0.20;;;;;;;20.86;42.47;102189.31;5074811;28;20044;-48
2023/04/17 10:11:43;;;;;;;0.20;0.20;;;;;;;20.86;42.57;102186.56;5077064;28;20578;-47
2023/04/17 10:14:12;;;;;;;0.20;0.20;;;;;;;20.87;42.42;102188.22;5080509;28;20058;-47
2023/04/17 10:16:40;;;;;;;0.20;0.20;;;;;;;20.86;42.67;102183.78;5078102;28;20125;-46
2023/04/17 10:19:27;;;;;;;0.20;0.20;;;;;;;20.87;42.65;102181.84;5058843;28;20044;-46
2023/04/17 10:22:18;;;;;;;0.25;0.25;;;;;;;20.89;42.70;102182.41;5058869;28;20040;-46
2023/04/17 10:24:51;;;;;;;0.20;0.20;;;;;;;20.90;42.36;102184.94;5158598;27;20235;-45
2023/04/17 10:30:12;;;;;;;0.20;0.20;;;;;;;20.90;42.17;102178.56;5135171;27;20129;-44
2023/04/17 10:32:40;;;;;;;2.20;0.43;;;;;;;20.90;42.21;102173.03;5117306;27;20036;-42
2023/04/17 10:38:10;;;;;;;0.20;0.20;;;;;;;20.93;42.19;102158.63;5135826;27;20127;-42
2023/04/17 10:40:37;;;;;;;0.20;0.20;;;;;;;20.92;42.39;102162.50;5128226;27;20336;-43
2023/04/17 10:43:21;;;;;;;0.10;0.10;;;;;;;20.92;42.17;102163.34;5121889;27;20050;-47
2023/04/17 10:46:11;;;;;;;0.20;0.20;;;;;;;20.91;41.83;102164.44;5122853;27;20458;-45
2023/04/17 10:48:41;;;;;;;0.20;0.20;;;;;;;20.91;41.70;102163.63;5102035;27;20046;-46
2023/04/17 10:54:00;;;;;;;0.20;0.20;;;;;;;20.91;41.80;102163.63;5129209;27;20124;-43
2023/04/17 10:56:26;;;;;;;;;;;;;;;20.88;41.89;102151.13;5112707;27;20046;-44
2023/04/17 10:59:00;;;;;;;0.20;0.20;;;;;;;20.88;42.09;102151.13;5114891;27;19938;-43
2023/04/17 11:01:29;;;;;;;0.20;0.20;;;;;;;20.90;41.70;102159.19;5107554;27;20038;-46
2023/04/17 11:03:55;;;;;;;0.20;0.20;;;;;;;20.91;42.01;102155.31;5138075;27;20159;-43
2023/04/17 11:06:21;;;;;;;0.20;0.20;;;;;;;20.89;41.79;102147.25;5132796;27;20549;-44
2023/04/17 11:08:48;;;;;;;0.20;0.20;;;;;;;20.89;41.97;102144.47;5112467;27;20046;-44
2023/04/17 11:11:16;;;;;;;0.20;0.20;;;;;;;20.93;42.09;102142.03;5144978;27;20039;-44
2023/04/17 11:13:48;;;;;;;0.20;0.20;;;;;;;20.90;41.72;102137.03;5141374;27;20513;-49
2023/04/17 11:16:14;;;;;;;0.20;0.20;;;;;;;20.90;41.96;102137.03;5122050;27;20483;-50
2023/04/17 11:18:42;;;;;;;0.28;0.28;;;;;;;20.89;41.95;102140.88;5109916;27;20041;-48
2023/04/17 11:21:10;;;;;;;0.20;0.20;;;;;;;20.92;41.80;102149.50;5115800;27;20102;-47
2023/04/17 11:23:36;;;;;;;0.30;0.30;;;;;;;20.90;41.47;102142.56;5135829;27;20047;-46
2023/04/17 11:26:02;;;;;;;0.20;0.20;;;;;;;20.91;41.72;102133.16;5133986;27;20588;-47
2023/04/17 11:28:28;;;;;;;0.20;0.20;;;;;;;20.90;41.05;102134.25;5109463;27;20050;-45
2023/04/17 11:30:53;;;;;;;0.20;0.20;;;;;;;20.88;40.67;102145.59;5131901;27;20042;-46